createdAt,value
2019-03-11T00:03:55.192Z,5.80
2019-03-11T00:08:00.008Z,5.90
2019-03-11T00:12:05.009Z,5.90
2019-03-11T00:16:09.898Z,5.90
2019-03-11T00:20:14.741Z,5.90
2019-03-11T00:24:19.698Z,5.80
2019-03-11T00:28:24.659Z,5.90
2019-03-11T00:32:29.668Z,6.00
2019-03-11T00:36:34.659Z,6.00
2019-03-11T00:40:39.532Z,6.00
2019-03-11T00:44:44.273Z,5.90
2019-03-11T00:48:49.020Z,5.80
2019-03-11T00:52:54.354Z,5.80
2019-03-11T00:56:59.148Z,5.70
2019-03-11T01:01:04.341Z,6.00
2019-03-11T01:05:10.112Z,5.80
2019-03-11T01:09:15.296Z,5.80
2019-03-11T01:13:20.299Z,5.70
2019-03-11T01:17:26.085Z,5.80
2019-03-11T01:21:31.307Z,5.70
2019-03-11T01:25:36.124Z,5.60
2019-03-11T01:29:40.916Z,5.60
2019-03-11T01:33:45.672Z,5.60
2019-03-11T01:37:50.481Z,5.60
2019-03-11T01:41:55.427Z,5.60
2019-03-11T01:46:00.235Z,5.60
2019-03-11T01:50:05.743Z,5.60
2019-03-11T01:54:10.856Z,5.40
2019-03-11T01:58:15.665Z,5.40
2019-03-11T02:02:20.547Z,5.30
2019-03-11T02:06:25.623Z,5.30
2019-03-11T02:10:30.516Z,5.20
2019-03-11T02:14:35.353Z,5.30
2019-03-11T02:18:40.160Z,5.10
2019-03-11T02:22:45.132Z,5.20
2019-03-11T02:26:49.940Z,5.30
2019-03-11T02:30:54.987Z,5.20
2019-03-11T02:34:59.799Z,5.20
2019-03-11T02:39:06.224Z,5.10
2019-03-11T02:43:11.781Z,5.00
2019-03-11T02:47:16.658Z,4.90
2019-03-11T02:51:21.622Z,5.00
2019-03-11T02:55:26.513Z,4.90
2019-03-11T02:59:32.555Z,5.00
2019-03-11T03:03:40.244Z,5.00
2019-03-11T03:07:45.122Z,5.00
2019-03-11T03:11:50.214Z,4.90
2019-03-11T03:15:55.027Z,4.90
2019-03-11T03:19:59.845Z,4.90
2019-03-11T03:24:05.194Z,4.90
2019-03-11T03:28:10.126Z,5.00
2019-03-11T03:32:15.650Z,4.90
2019-03-11T03:36:20.536Z,4.90
2019-03-11T03:40:25.350Z,5.10
2019-03-11T03:44:30.520Z,5.20
2019-03-11T03:48:35.487Z,5.00
2019-03-11T03:52:40.754Z,5.00
2019-03-11T03:56:45.564Z,5.00
2019-03-11T04:00:50.571Z,4.90
2019-03-11T04:04:59.723Z,5.00
2019-03-11T04:09:05.392Z,5.10
2019-03-11T04:13:10.806Z,5.10
2019-03-11T04:17:16.065Z,5.20
2019-03-11T04:21:21.625Z,5.00
2019-03-11T04:25:28.657Z,5.00
2019-03-11T04:29:33.388Z,5.00
2019-03-11T04:33:38.655Z,5.10
2019-03-11T04:37:43.560Z,5.00
2019-03-11T04:41:48.301Z,4.90
2019-03-11T04:45:53.182Z,4.90
2019-03-11T04:50:00.158Z,5.00
2019-03-11T04:54:04.776Z,5.00
2019-03-11T04:58:09.565Z,5.00
2019-03-11T05:02:14.416Z,5.10
2019-03-11T05:06:19.148Z,5.10
2019-03-11T05:10:24.006Z,5.10
2019-03-11T05:14:28.937Z,5.20
2019-03-11T05:18:33.745Z,5.20
2019-03-11T05:22:38.576Z,5.10
2019-03-11T05:26:43.388Z,5.10
2019-03-11T05:30:48.378Z,5.00
2019-03-11T05:34:53.168Z,5.10
2019-03-11T05:38:57.907Z,5.20
2019-03-11T05:43:02.726Z,5.20
2019-03-11T05:47:07.607Z,5.30
2019-03-11T05:51:12.405Z,5.30
2019-03-11T05:55:17.272Z,5.40
2019-03-11T05:59:22.087Z,5.20
2019-03-11T06:03:26.952Z,5.20
2019-03-11T06:07:32.251Z,5.30
2019-03-11T06:11:37.330Z,5.40
2019-03-11T06:15:42.244Z,5.30
2019-03-11T06:19:48.695Z,5.50
2019-03-11T06:23:53.838Z,5.50
2019-03-11T06:27:58.727Z,5.50
2019-03-11T06:32:03.652Z,5.40
2019-03-11T06:36:08.542Z,5.50
2019-03-11T06:40:13.904Z,5.50
2019-03-11T06:44:18.815Z,5.60
2019-03-11T06:48:23.692Z,5.50
2019-03-11T06:52:28.798Z,5.60
2019-03-11T06:56:33.539Z,5.60
2019-03-11T07:00:38.428Z,5.70
2019-03-11T07:04:43.235Z,5.70
2019-03-11T07:08:48.127Z,5.60
2019-03-11T07:12:53.020Z,5.30
2019-03-11T07:16:57.748Z,4.80
2019-03-11T07:21:02.964Z,3.90
2019-03-11T07:25:08.544Z,3.50
2019-03-11T07:29:13.276Z,3.00
2019-03-11T07:33:18.377Z,2.80
2019-03-11T07:37:23.142Z,2.50
2019-03-11T07:41:28.086Z,1.70
2019-03-11T07:45:32.879Z,1.50
2019-03-11T07:49:37.605Z,1.50
2019-03-11T07:53:42.364Z,1.30
2019-03-11T07:57:48.242Z,1.30
2019-03-11T08:01:53.137Z,1.10
2019-03-11T08:05:57.877Z,1.00
2019-03-11T08:10:02.739Z,1.10
2019-03-11T08:14:07.492Z,0.90
2019-03-11T08:18:12.296Z,0.90
2019-03-11T08:22:17.200Z,0.90
2019-03-11T08:26:22.010Z,0.80
2019-03-11T08:30:26.735Z,0.80
2019-03-11T08:34:31.552Z,0.80
2019-03-11T08:38:36.317Z,0.80
2019-03-11T08:42:41.262Z,0.70
2019-03-11T08:46:46.079Z,0.60
2019-03-11T08:50:50.909Z,0.70
2019-03-11T08:54:55.852Z,0.80
2019-03-11T08:59:00.740Z,0.90
2019-03-11T09:03:05.636Z,0.80
2019-03-11T09:07:10.373Z,0.90
2019-03-11T09:11:15.163Z,0.90
2019-03-11T09:15:20.242Z,1.00
2019-03-11T09:19:24.993Z,1.10
2019-03-11T09:23:30.085Z,1.20
2019-03-11T09:27:35.634Z,1.30
2019-03-11T09:31:40.740Z,1.50
2019-03-11T09:35:45.624Z,1.40
2019-03-11T09:39:50.511Z,1.60
2019-03-11T09:43:55.275Z,1.70
2019-03-11T09:48:00.068Z,1.80
2019-03-11T09:52:04.933Z,1.80
2019-03-11T09:56:09.930Z,1.80
2019-03-11T10:00:17.582Z,1.90
2019-03-11T10:04:22.700Z,2.10
2019-03-11T10:08:27.492Z,2.10
2019-03-11T10:12:32.384Z,1.40
2019-03-11T10:16:37.133Z,1.30
2019-03-11T10:20:43.141Z,1.10
2019-03-11T10:24:48.002Z,1.00
2019-03-11T10:28:53.203Z,1.00
2019-03-11T10:32:58.087Z,1.10
2019-03-11T10:37:02.996Z,1.00
2019-03-11T10:41:07.920Z,1.10
2019-03-11T10:45:13.290Z,1.20
2019-03-11T10:49:18.176Z,1.40
2019-03-11T10:53:22.944Z,1.50
2019-03-11T10:57:27.816Z,1.60
2019-03-11T11:01:32.665Z,1.70
2019-03-11T11:05:37.552Z,1.90
2019-03-11T11:09:42.364Z,1.80
2019-03-11T11:13:47.272Z,1.70
2019-03-11T11:17:53.430Z,1.70
2019-03-11T11:21:58.348Z,1.90
2019-03-11T11:26:03.152Z,2.60
2019-03-11T11:30:10.385Z,2.80
2019-03-11T11:34:15.204Z,2.60
2019-03-11T11:38:20.007Z,2.90
2019-03-11T11:42:25.076Z,3.30
2019-03-11T11:46:29.972Z,3.20
2019-03-11T11:50:34.780Z,3.50
2019-03-11T11:54:39.683Z,3.50
2019-03-11T11:58:44.565Z,3.80
2019-03-11T12:02:49.880Z,3.70
2019-03-11T12:06:54.716Z,4.00
2019-03-11T12:10:59.960Z,4.10
2019-03-11T12:15:05.557Z,3.80
2019-03-11T12:19:10.440Z,4.20
2019-03-11T12:23:15.320Z,4.30
2019-03-11T12:27:20.124Z,4.20
2019-03-11T12:31:25.021Z,4.00
2019-03-11T12:35:30.002Z,3.90
2019-03-11T12:39:34.825Z,3.80
2019-03-11T12:43:39.545Z,4.10
2019-03-11T12:47:44.480Z,4.30
2019-03-11T12:51:50.297Z,4.40
2019-03-11T12:55:55.269Z,4.60
2019-03-11T13:00:00.360Z,5.10
2019-03-11T13:04:05.239Z,5.30
2019-03-11T13:08:10.133Z,5.40
2019-03-11T13:12:14.948Z,5.40
2019-03-11T13:16:19.692Z,4.90
2019-03-11T13:20:30.979Z,5.00
2019-03-11T13:24:35.883Z,5.00
2019-03-11T13:28:40.618Z,4.90
2019-03-11T13:32:45.441Z,5.30
2019-03-11T13:36:50.180Z,5.00
2019-03-11T13:40:55.078Z,5.30
2019-03-11T13:44:59.809Z,5.50
2019-03-11T13:49:05.161Z,5.30
2019-03-11T13:53:10.044Z,4.80
2019-03-11T13:57:14.927Z,4.50
2019-03-11T14:01:21.240Z,4.50
2019-03-11T14:05:26.556Z,4.40
2019-03-11T14:09:31.363Z,4.00
2019-03-11T14:13:36.172Z,3.90
2019-03-11T14:17:41.016Z,3.90
2019-03-11T14:21:45.948Z,3.70
2019-03-11T14:25:51.310Z,3.60
2019-03-11T14:29:56.109Z,3.40
2019-03-11T14:34:00.852Z,3.40
2019-03-11T14:38:05.736Z,3.50
2019-03-11T14:42:11.716Z,3.40
2019-03-11T14:46:16.584Z,3.90
2019-03-11T14:50:21.471Z,4.00
2019-03-11T14:54:26.288Z,4.00
2019-03-11T14:58:31.020Z,4.20
2019-03-11T15:02:35.934Z,4.00
2019-03-11T15:06:40.749Z,4.00
2019-03-11T15:10:45.532Z,3.90
2019-03-11T15:14:50.628Z,3.90
2019-03-11T15:18:56.504Z,4.00
2019-03-11T15:23:07.573Z,4.40
2019-03-11T15:27:08.070Z,4.40
2019-03-11T15:31:12.961Z,4.30
2019-03-11T15:35:17.847Z,4.00
2019-03-11T15:39:22.648Z,3.70
2019-03-11T15:43:27.461Z,3.30
2019-03-11T15:47:32.332Z,3.10
2019-03-11T15:51:37.205Z,2.90
2019-03-11T15:55:44.665Z,2.40
2019-03-11T15:59:48.915Z,1.70
2019-03-11T16:03:53.765Z,1.60
2019-03-11T16:07:58.663Z,1.90
2019-03-11T16:12:04.397Z,1.70
2019-03-11T16:16:09.885Z,1.80
2019-03-11T16:20:16.357Z,2.00
2019-03-11T16:24:21.171Z,2.10
2019-03-11T16:28:27.982Z,2.20
2019-03-11T16:32:36.863Z,2.10
2019-03-11T16:36:39.208Z,2.00
2019-03-11T16:40:44.301Z,1.70
2019-03-11T16:44:49.189Z,1.50
2019-03-11T16:48:54.077Z,1.50
2019-03-11T16:52:58.896Z,1.80
2019-03-11T16:57:03.841Z,1.80
2019-03-11T17:01:10.357Z,1.60
2019-03-11T17:05:15.276Z,1.70
2019-03-11T17:09:20.156Z,1.80
2019-03-11T17:13:25.042Z,2.10
2019-03-11T17:17:29.848Z,2.10
2019-03-11T17:21:34.668Z,2.20
2019-03-11T17:25:39.473Z,2.20
2019-03-11T17:29:44.539Z,2.10
2019-03-11T17:33:49.448Z,2.00
2019-03-11T17:37:54.323Z,1.80
2019-03-11T17:41:59.146Z,1.90
2019-03-11T17:46:04.228Z,1.80
2019-03-11T17:50:10.712Z,1.90
2019-03-11T17:54:15.588Z,1.80
2019-03-11T17:58:20.452Z,1.70
2019-03-11T18:02:25.467Z,1.60
2019-03-11T18:06:30.471Z,1.60
2019-03-11T18:10:35.357Z,1.60
2019-03-11T18:14:40.490Z,1.80
2019-03-11T18:18:45.834Z,1.80
2019-03-11T18:22:51.432Z,1.60
2019-03-11T18:26:56.309Z,1.60
2019-03-11T18:31:01.443Z,1.60
2019-03-11T18:35:07.413Z,1.80
2019-03-11T18:39:12.376Z,1.80
2019-03-11T18:43:20.904Z,1.70
2019-03-11T18:47:24.005Z,1.60
2019-03-11T18:51:28.986Z,1.70
2019-03-11T18:55:34.205Z,1.70
2019-03-11T18:59:39.496Z,1.70
2019-03-11T19:03:44.769Z,1.60
2019-03-11T19:07:49.719Z,1.50
2019-03-11T19:11:54.777Z,1.60
2019-03-11T19:16:00.077Z,1.50
2019-03-11T19:20:06.893Z,1.60
2019-03-11T19:24:12.156Z,1.70
2019-03-11T19:28:17.001Z,1.70
2019-03-11T19:32:22.095Z,1.80
2019-03-11T19:36:26.958Z,1.80
2019-03-11T19:40:31.979Z,1.60
2019-03-11T19:44:37.320Z,1.60
2019-03-11T19:48:43.568Z,1.60
2019-03-11T19:52:58.326Z,1.70
2019-03-11T19:56:55.446Z,1.70
2019-03-11T20:01:00.650Z,1.70
2019-03-11T20:05:07.040Z,1.70
2019-03-11T20:09:14.274Z,1.60
2019-03-11T20:13:19.376Z,1.60
2019-03-11T20:17:24.501Z,1.60
2019-03-11T20:21:29.991Z,1.60
2019-03-11T20:25:35.200Z,1.70
2019-03-11T20:29:40.210Z,1.70
2019-03-11T20:33:45.282Z,1.70
2019-03-11T20:37:50.229Z,1.60
2019-03-11T20:41:55.438Z,1.40
2019-03-11T20:46:00.382Z,1.60
2019-03-11T20:50:05.867Z,1.60
2019-03-11T20:54:11.494Z,1.70
2019-03-11T20:58:17.589Z,1.70
2019-03-11T21:02:22.581Z,1.70
2019-03-11T21:06:27.620Z,1.70
2019-03-11T21:10:32.529Z,1.70
2019-03-11T21:14:37.714Z,1.80
2019-03-11T21:18:42.870Z,1.80
2019-03-11T21:22:48.093Z,1.80
2019-03-11T21:26:53.123Z,1.90
2019-03-11T21:30:59.251Z,1.80
2019-03-11T21:35:04.443Z,1.90
2019-03-11T21:39:10.460Z,1.90
2019-03-11T21:43:16.835Z,1.90
2019-03-11T21:47:21.724Z,2.00
2019-03-11T21:51:26.889Z,2.20
2019-03-11T21:55:33.823Z,2.10
2019-03-11T21:59:38.781Z,2.00
2019-03-11T22:03:44.531Z,2.10
2019-03-11T22:07:49.412Z,2.00
2019-03-11T22:11:54.363Z,2.10
2019-03-11T22:15:59.167Z,2.20
2019-03-11T22:20:04.638Z,2.40
2019-03-11T22:24:09.479Z,2.70
2019-03-11T22:28:14.282Z,2.80
2019-03-11T22:32:19.071Z,2.90
2019-03-11T22:36:23.805Z,3.00
2019-03-11T22:40:28.625Z,3.00
2019-03-11T22:44:33.629Z,2.80
2019-03-11T22:48:38.370Z,2.70
2019-03-11T22:52:43.507Z,2.60
2019-03-11T22:56:48.397Z,2.70
2019-03-11T23:01:01.774Z,2.60
2019-03-11T23:05:08.441Z,2.70
2019-03-11T23:09:13.337Z,2.70
2019-03-11T23:13:18.497Z,2.60
2019-03-11T23:17:23.919Z,2.70
2019-03-11T23:21:29.018Z,2.70
2019-03-11T23:25:33.907Z,2.60
2019-03-11T23:29:38.711Z,2.70
2019-03-11T23:33:43.745Z,2.80
2019-03-11T23:37:48.620Z,2.70
2019-03-11T23:41:53.656Z,2.70
2019-03-11T23:45:58.542Z,2.70
2019-03-11T23:50:03.468Z,2.70
2019-03-11T23:54:08.877Z,2.60
2019-03-11T23:58:13.620Z,2.60
